sensor_id;sensor_type;location;lat;lon;timestamp;temperature;humidity
20492;DHT22;10404;51.468;6.762;2023-06-22T00:00:29;26.60;44.10
20492;DHT22;10404;51.468;6.762;2023-06-22T00:02:55;26.60;44.40
20492;DHT22;10404;51.468;6.762;2023-06-22T00:05:21;26.60;44.40
20492;DHT22;10404;51.468;6.762;2023-06-22T00:07:46;26.50;44.60
20492;DHT22;10404;51.468;6.762;2023-06-22T00:10:12;26.50;44.70
20492;DHT22;10404;51.468;6.762;2023-06-22T00:12:38;26.40;44.70
20492;DHT22;10404;51.468;6.762;2023-06-22T00:15:04;26.40;44.80
20492;DHT22;10404;51.468;6.762;2023-06-22T00:17:29;26.40;44.80
20492;DHT22;10404;51.468;6.762;2023-06-22T00:19:55;26.40;45.00
20492;DHT22;10404;51.468;6.762;2023-06-22T00:22:22;26.30;45.10
20492;DHT22;10404;51.468;6.762;2023-06-22T00:24:54;26.30;45.10
20492;DHT22;10404;51.468;6.762;2023-06-22T00:27:20;26.20;45.20
20492;DHT22;10404;51.468;6.762;2023-06-22T00:29:46;26.20;45.20
20492;DHT22;10404;51.468;6.762;2023-06-22T00:32:12;26.20;45.40
20492;DHT22;10404;51.468;6.762;2023-06-22T00:34:38;26.10;45.40
20492;DHT22;10404;51.468;6.762;2023-06-22T00:37:04;26.10;45.50
20492;DHT22;10404;51.468;6.762;2023-06-22T00:39:30;26.00;45.50
20492;DHT22;10404;51.468;6.762;2023-06-22T00:41:55;26.00;45.60
20492;DHT22;10404;51.468;6.762;2023-06-22T00:44:21;26.00;45.60
20492;DHT22;10404;51.468;6.762;2023-06-22T00:46:46;26.00;45.70
20492;DHT22;10404;51.468;6.762;2023-06-22T00:49:12;26.00;45.90
20492;DHT22;10404;51.468;6.762;2023-06-22T00:51:38;25.90;45.90
20492;DHT22;10404;51.468;6.762;2023-06-22T00:54:05;25.80;46.00
20492;DHT22;10404;51.468;6.762;2023-06-22T00:56:32;25.80;46.10
20492;DHT22;10404;51.468;6.762;2023-06-22T00:58:58;25.80;46.20
20492;DHT22;10404;51.468;6.762;2023-06-22T01:01:24;25.80;46.40
20492;DHT22;10404;51.468;6.762;2023-06-22T01:03:51;25.70;46.40
20492;DHT22;10404;51.468;6.762;2023-06-22T01:06:23;25.60;46.40
20492;DHT22;10404;51.468;6.762;2023-06-22T01:09:08;25.60;46.60
20492;DHT22;10404;51.468;6.762;2023-06-22T01:11:49;25.60;46.80
20492;DHT22;10404;51.468;6.762;2023-06-22T01:14:23;25.50;46.90
20492;DHT22;10404;51.468;6.762;2023-06-22T01:16:51;25.50;47.00
20492;DHT22;10404;51.468;6.762;2023-06-22T01:21:56;25.40;47.00
20492;DHT22;10404;51.468;6.762;2023-06-22T01:24:32;25.40;47.10
20492;DHT22;10404;51.468;6.762;2023-06-22T01:29:52;25.30;47.30
20492;DHT22;10404;51.468;6.762;2023-06-22T01:32:31;25.20;47.40
20492;DHT22;10404;51.468;6.762;2023-06-22T01:34:59;25.20;47.50
20492;DHT22;10404;51.468;6.762;2023-06-22T01:37:26;25.20;47.60
20492;DHT22;10404;51.468;6.762;2023-06-22T01:39:52;25.10;47.70
20492;DHT22;10404;51.468;6.762;2023-06-22T01:42:19;25.10;47.70
20492;DHT22;10404;51.468;6.762;2023-06-22T01:44:45;25.00;47.70
20492;DHT22;10404;51.468;6.762;2023-06-22T01:47:11;25.00;48.00
20492;DHT22;10404;51.468;6.762;2023-06-22T01:49:40;25.00;47.90
20492;DHT22;10404;51.468;6.762;2023-06-22T01:52:07;25.00;48.10
20492;DHT22;10404;51.468;6.762;2023-06-22T01:54:32;25.00;48.10
20492;DHT22;10404;51.468;6.762;2023-06-22T01:56:58;25.00;48.20
20492;DHT22;10404;51.468;6.762;2023-06-22T01:59:30;25.00;48.20
20492;DHT22;10404;51.468;6.762;2023-06-22T02:02:04;24.90;48.30
20492;DHT22;10404;51.468;6.762;2023-06-22T02:04:58;24.80;48.40
20492;DHT22;10404;51.468;6.762;2023-06-22T02:07:23;24.80;48.30
20492;DHT22;10404;51.468;6.762;2023-06-22T02:09:51;24.80;48.40
20492;DHT22;10404;51.468;6.762;2023-06-22T02:12:18;24.80;48.40
20492;DHT22;10404;51.468;6.762;2023-06-22T02:14:46;24.80;48.40
20492;DHT22;10404;51.468;6.762;2023-06-22T02:17:12;24.70;48.60
20492;DHT22;10404;51.468;6.762;2023-06-22T02:19:41;24.70;48.50
20492;DHT22;10404;51.468;6.762;2023-06-22T02:22:07;24.70;48.70
20492;DHT22;10404;51.468;6.762;2023-06-22T02:24:32;24.70;48.60
20492;DHT22;10404;51.468;6.762;2023-06-22T02:26:59;24.70;48.90
20492;DHT22;10404;51.468;6.762;2023-06-22T02:29:25;24.60;49.10
20492;DHT22;10404;51.468;6.762;2023-06-22T02:31:52;24.60;49.10
20492;DHT22;10404;51.468;6.762;2023-06-22T02:34:17;24.50;49.10
20492;DHT22;10404;51.468;6.762;2023-06-22T02:36:47;24.50;49.10
20492;DHT22;10404;51.468;6.762;2023-06-22T02:39:23;24.50;49.10
20492;DHT22;10404;51.468;6.762;2023-06-22T02:41:50;24.50;49.20
20492;DHT22;10404;51.468;6.762;2023-06-22T02:44:17;24.50;49.30
20492;DHT22;10404;51.468;6.762;2023-06-22T02:46:43;24.50;49.30
20492;DHT22;10404;51.468;6.762;2023-06-22T02:49:09;24.40;49.60
20492;DHT22;10404;51.468;6.762;2023-06-22T02:51:35;24.40;49.70
20492;DHT22;10404;51.468;6.762;2023-06-22T02:54:01;24.40;49.80
20492;DHT22;10404;51.468;6.762;2023-06-22T02:56:28;24.40;49.80
20492;DHT22;10404;51.468;6.762;2023-06-22T02:58:54;24.30;49.90
20492;DHT22;10404;51.468;6.762;2023-06-22T03:01:26;24.30;49.90
20492;DHT22;10404;51.468;6.762;2023-06-22T03:03:53;24.20;50.00
20492;DHT22;10404;51.468;6.762;2023-06-22T03:06:20;24.20;50.20
20492;DHT22;10404;51.468;6.762;2023-06-22T03:08:49;24.20;50.20
20492;DHT22;10404;51.468;6.762;2023-06-22T03:11:15;24.20;50.50
20492;DHT22;10404;51.468;6.762;2023-06-22T03:13:41;24.10;50.40
20492;DHT22;10404;51.468;6.762;2023-06-22T03:16:07;24.10;50.60
20492;DHT22;10404;51.468;6.762;2023-06-22T03:18:32;24.10;50.50
20492;DHT22;10404;51.468;6.762;2023-06-22T03:20:58;24.00;50.50
20492;DHT22;10404;51.468;6.762;2023-06-22T03:23:24;24.00;50.50
20492;DHT22;10404;51.468;6.762;2023-06-22T03:25:49;24.00;50.50
20492;DHT22;10404;51.468;6.762;2023-06-22T03:28:15;24.00;50.50
20492;DHT22;10404;51.468;6.762;2023-06-22T03:30:41;24.00;50.70
20492;DHT22;10404;51.468;6.762;2023-06-22T03:33:07;24.00;50.90
20492;DHT22;10404;51.468;6.762;2023-06-22T03:35:32;24.00;50.80
20492;DHT22;10404;51.468;6.762;2023-06-22T03:37:58;23.90;51.00
20492;DHT22;10404;51.468;6.762;2023-06-22T03:40:23;23.90;51.20
20492;DHT22;10404;51.468;6.762;2023-06-22T03:42:50;23.90;51.20
20492;DHT22;10404;51.468;6.762;2023-06-22T03:45:16;23.80;51.40
20492;DHT22;10404;51.468;6.762;2023-06-22T03:47:41;23.80;51.50
20492;DHT22;10404;51.468;6.762;2023-06-22T03:50:07;23.80;51.50
20492;DHT22;10404;51.468;6.762;2023-06-22T03:52:33;23.70;51.50
20492;DHT22;10404;51.468;6.762;2023-06-22T03:54:59;23.80;51.60
20492;DHT22;10404;51.468;6.762;2023-06-22T03:57:24;23.70;51.60
20492;DHT22;10404;51.468;6.762;2023-06-22T03:59:50;23.60;51.60
20492;DHT22;10404;51.468;6.762;2023-06-22T04:02:16;23.60;51.70
20492;DHT22;10404;51.468;6.762;2023-06-22T04:04:41;23.60;52.00
20492;DHT22;10404;51.468;6.762;2023-06-22T04:07:07;23.60;51.90
20492;DHT22;10404;51.468;6.762;2023-06-22T04:09:33;23.60;51.90
20492;DHT22;10404;51.468;6.762;2023-06-22T04:11:58;23.60;52.00
20492;DHT22;10404;51.468;6.762;2023-06-22T04:14:24;23.60;52.20
20492;DHT22;10404;51.468;6.762;2023-06-22T04:16:50;23.50;52.20
20492;DHT22;10404;51.468;6.762;2023-06-22T04:19:15;23.50;52.30
20492;DHT22;10404;51.468;6.762;2023-06-22T04:21:43;23.50;52.50
20492;DHT22;10404;51.468;6.762;2023-06-22T04:24:12;23.50;52.50
20492;DHT22;10404;51.468;6.762;2023-06-22T04:26:38;23.40;52.50
20492;DHT22;10404;51.468;6.762;2023-06-22T04:29:06;23.40;52.60
20492;DHT22;10404;51.468;6.762;2023-06-22T04:31:34;23.40;52.60
20492;DHT22;10404;51.468;6.762;2023-06-22T04:34:03;23.40;52.80
20492;DHT22;10404;51.468;6.762;2023-06-22T04:36:40;23.40;53.00
20492;DHT22;10404;51.468;6.762;2023-06-22T04:39:07;23.40;53.20
20492;DHT22;10404;51.468;6.762;2023-06-22T04:41:38;23.30;53.00
20492;DHT22;10404;51.468;6.762;2023-06-22T04:46:35;23.30;53.30
20492;DHT22;10404;51.468;6.762;2023-06-22T04:49:04;23.30;53.30
20492;DHT22;10404;51.468;6.762;2023-06-22T04:51:32;23.30;53.50
20492;DHT22;10404;51.468;6.762;2023-06-22T04:53:57;23.30;53.50
20492;DHT22;10404;51.468;6.762;2023-06-22T04:56:26;23.30;53.40
20492;DHT22;10404;51.468;6.762;2023-06-22T04:58:53;23.30;53.30
20492;DHT22;10404;51.468;6.762;2023-06-22T05:01:23;23.30;53.30
20492;DHT22;10404;51.468;6.762;2023-06-22T05:03:49;23.30;53.20
20492;DHT22;10404;51.468;6.762;2023-06-22T05:06:15;23.20;53.20
20492;DHT22;10404;51.468;6.762;2023-06-22T05:08:41;23.20;53.20
20492;DHT22;10404;51.468;6.762;2023-06-22T05:11:06;23.20;53.30
20492;DHT22;10404;51.468;6.762;2023-06-22T05:13:32;23.20;53.20
20492;DHT22;10404;51.468;6.762;2023-06-22T05:15:58;23.20;53.40
20492;DHT22;10404;51.468;6.762;2023-06-22T05:18:31;23.20;53.50
20492;DHT22;10404;51.468;6.762;2023-06-22T05:20:58;23.20;53.50
20492;DHT22;10404;51.468;6.762;2023-06-22T05:23:24;23.20;53.60
20492;DHT22;10404;51.468;6.762;2023-06-22T05:25:49;23.10;53.80
20492;DHT22;10404;51.468;6.762;2023-06-22T05:28:15;23.10;53.80
20492;DHT22;10404;51.468;6.762;2023-06-22T05:30:41;23.10;53.70
20492;DHT22;10404;51.468;6.762;2023-06-22T05:33:07;23.10;53.80
20492;DHT22;10404;51.468;6.762;2023-06-22T05:35:32;23.10;53.80
20492;DHT22;10404;51.468;6.762;2023-06-22T05:37:58;23.10;54.00
20492;DHT22;10404;51.468;6.762;2023-06-22T05:40:23;23.00;54.20
20492;DHT22;10404;51.468;6.762;2023-06-22T05:42:49;23.10;54.20
20492;DHT22;10404;51.468;6.762;2023-06-22T05:45:15;23.00;54.00
20492;DHT22;10404;51.468;6.762;2023-06-22T05:47:40;23.00;54.00
20492;DHT22;10404;51.468;6.762;2023-06-22T05:50:06;23.00;54.00
20492;DHT22;10404;51.468;6.762;2023-06-22T05:52:34;23.00;54.10
20492;DHT22;10404;51.468;6.762;2023-06-22T05:54:59;23.00;54.10
20492;DHT22;10404;51.468;6.762;2023-06-22T05:57:25;23.00;54.40
20492;DHT22;10404;51.468;6.762;2023-06-22T05:59:51;23.00;54.30
20492;DHT22;10404;51.468;6.762;2023-06-22T06:02:17;23.00;54.30
20492;DHT22;10404;51.468;6.762;2023-06-22T06:04:42;23.00;54.40
20492;DHT22;10404;51.468;6.762;2023-06-22T06:07:08;23.00;54.30
20492;DHT22;10404;51.468;6.762;2023-06-22T06:09:34;23.00;54.40
20492;DHT22;10404;51.468;6.762;2023-06-22T06:11:59;23.00;54.60
20492;DHT22;10404;51.468;6.762;2023-06-22T06:14:25;23.00;54.50
20492;DHT22;10404;51.468;6.762;2023-06-22T06:16:50;23.00;54.70
20492;DHT22;10404;51.468;6.762;2023-06-22T06:19:16;22.90;55.00
20492;DHT22;10404;51.468;6.762;2023-06-22T06:21:42;22.90;55.20
20492;DHT22;10404;51.468;6.762;2023-06-22T06:24:07;22.90;55.30
20492;DHT22;10404;51.468;6.762;2023-06-22T06:26:33;22.90;55.70
20492;DHT22;10404;51.468;6.762;2023-06-22T06:29:00;22.80;55.70
20492;DHT22;10404;51.468;6.762;2023-06-22T06:31:26;22.80;56.00
20492;DHT22;10404;51.468;6.762;2023-06-22T06:33:55;22.80;56.20
20492;DHT22;10404;51.468;6.762;2023-06-22T06:36:21;22.80;56.80
20492;DHT22;10404;51.468;6.762;2023-06-22T06:38:47;22.80;56.70
20492;DHT22;10404;51.468;6.762;2023-06-22T06:41:14;22.80;57.30
20492;DHT22;10404;51.468;6.762;2023-06-22T06:43:40;22.70;57.90
20492;DHT22;10404;51.468;6.762;2023-06-22T06:46:07;22.70;58.00
20492;DHT22;10404;51.468;6.762;2023-06-22T06:48:33;22.70;58.20
20492;DHT22;10404;51.468;6.762;2023-06-22T06:50:59;22.60;58.40
20492;DHT22;10404;51.468;6.762;2023-06-22T06:53:24;22.60;58.20
20492;DHT22;10404;51.468;6.762;2023-06-22T06:55:50;22.60;58.60
20492;DHT22;10404;51.468;6.762;2023-06-22T06:58:15;22.60;58.60
20492;DHT22;10404;51.468;6.762;2023-06-22T07:00:41;22.60;58.90
20492;DHT22;10404;51.468;6.762;2023-06-22T07:03:08;22.50;59.10
20492;DHT22;10404;51.468;6.762;2023-06-22T07:05:34;22.50;59.30
20492;DHT22;10404;51.468;6.762;2023-06-22T07:08:01;22.50;59.40
20492;DHT22;10404;51.468;6.762;2023-06-22T07:10:27;22.50;59.00
20492;DHT22;10404;51.468;6.762;2023-06-22T07:12:53;22.50;59.70
20492;DHT22;10404;51.468;6.762;2023-06-22T07:15:18;22.50;59.70
20492;DHT22;10404;51.468;6.762;2023-06-22T07:17:45;22.50;59.80
20492;DHT22;10404;51.468;6.762;2023-06-22T07:20:11;22.50;60.00
20492;DHT22;10404;51.468;6.762;2023-06-22T07:22:39;22.50;59.90
20492;DHT22;10404;51.468;6.762;2023-06-22T07:25:06;22.50;59.70
20492;DHT22;10404;51.468;6.762;2023-06-22T07:27:57;22.50;59.60
20492;DHT22;10404;51.468;6.762;2023-06-22T07:30:23;22.50;59.50
20492;DHT22;10404;51.468;6.762;2023-06-22T07:32:49;22.50;59.40
20492;DHT22;10404;51.468;6.762;2023-06-22T07:35:14;22.50;59.70
20492;DHT22;10404;51.468;6.762;2023-06-22T07:37:42;22.50;59.50
20492;DHT22;10404;51.468;6.762;2023-06-22T07:40:08;22.40;60.00
20492;DHT22;10404;51.468;6.762;2023-06-22T07:42:34;22.40;60.10
20492;DHT22;10404;51.468;6.762;2023-06-22T07:45:00;22.40;60.00
20492;DHT22;10404;51.468;6.762;2023-06-22T07:47:26;22.40;60.10
20492;DHT22;10404;51.468;6.762;2023-06-22T07:49:54;22.40;59.90
20492;DHT22;10404;51.468;6.762;2023-06-22T07:52:21;22.40;60.40
20492;DHT22;10404;51.468;6.762;2023-06-22T07:54:47;22.30;60.10
20492;DHT22;10404;51.468;6.762;2023-06-22T07:57:12;22.40;60.00
20492;DHT22;10404;51.468;6.762;2023-06-22T07:59:38;22.40;60.30
20492;DHT22;10404;51.468;6.762;2023-06-22T08:02:05;22.40;60.10
20492;DHT22;10404;51.468;6.762;2023-06-22T08:04:30;22.30;60.20
20492;DHT22;10404;51.468;6.762;2023-06-22T08:07:00;22.30;60.20
20492;DHT22;10404;51.468;6.762;2023-06-22T08:09:31;22.40;60.20
20492;DHT22;10404;51.468;6.762;2023-06-22T08:11:57;22.40;60.30
20492;DHT22;10404;51.468;6.762;2023-06-22T08:14:24;22.40;60.10
20492;DHT22;10404;51.468;6.762;2023-06-22T08:16:50;22.40;60.00
20492;DHT22;10404;51.468;6.762;2023-06-22T08:19:16;22.40;60.50
20492;DHT22;10404;51.468;6.762;2023-06-22T08:21:42;22.40;61.10
20492;DHT22;10404;51.468;6.762;2023-06-22T08:24:08;22.40;61.10
20492;DHT22;10404;51.468;6.762;2023-06-22T08:26:33;22.40;61.50
20492;DHT22;10404;51.468;6.762;2023-06-22T08:29:03;22.40;61.10
20492;DHT22;10404;51.468;6.762;2023-06-22T08:31:30;22.40;60.80
20492;DHT22;10404;51.468;6.762;2023-06-22T08:33:55;22.40;61.00
20492;DHT22;10404;51.468;6.762;2023-06-22T08:36:21;22.40;61.00
20492;DHT22;10404;51.468;6.762;2023-06-22T08:38:47;22.40;60.90
20492;DHT22;10404;51.468;6.762;2023-06-22T08:41:17;22.40;61.20
20492;DHT22;10404;51.468;6.762;2023-06-22T08:43:43;22.40;61.30
20492;DHT22;10404;51.468;6.762;2023-06-22T08:46:10;22.40;61.90
20492;DHT22;10404;51.468;6.762;2023-06-22T08:48:36;22.40;61.70
20492;DHT22;10404;51.468;6.762;2023-06-22T08:51:02;22.40;61.50
20492;DHT22;10404;51.468;6.762;2023-06-22T08:53:28;22.40;61.60
20492;DHT22;10404;51.468;6.762;2023-06-22T08:55:54;22.40;61.60
20492;DHT22;10404;51.468;6.762;2023-06-22T08:58:20;22.40;61.20
20492;DHT22;10404;51.468;6.762;2023-06-22T09:00:46;22.40;61.20
20492;DHT22;10404;51.468;6.762;2023-06-22T09:03:13;22.40;60.90
20492;DHT22;10404;51.468;6.762;2023-06-22T09:05:38;22.40;60.70
20492;DHT22;10404;51.468;6.762;2023-06-22T09:08:04;22.50;60.80
20492;DHT22;10404;51.468;6.762;2023-06-22T09:10:30;22.40;61.10
20492;DHT22;10404;51.468;6.762;2023-06-22T09:12:57;22.50;61.20
20492;DHT22;10404;51.468;6.762;2023-06-22T09:15:23;22.50;61.00
20492;DHT22;10404;51.468;6.762;2023-06-22T09:17:48;22.50;61.00
20492;DHT22;10404;51.468;6.762;2023-06-22T09:20:15;22.50;61.10
20492;DHT22;10404;51.468;6.762;2023-06-22T09:22:41;22.50;61.30
20492;DHT22;10404;51.468;6.762;2023-06-22T09:25:07;22.50;61.90
20492;DHT22;10404;51.468;6.762;2023-06-22T09:27:33;22.50;61.70
20492;DHT22;10404;51.468;6.762;2023-06-22T09:29:58;22.50;62.00
20492;DHT22;10404;51.468;6.762;2023-06-22T09:32:24;22.50;62.40
20492;DHT22;10404;51.468;6.762;2023-06-22T09:34:51;22.50;62.80
20492;DHT22;10404;51.468;6.762;2023-06-22T09:37:16;22.50;62.90
20492;DHT22;10404;51.468;6.762;2023-06-22T09:39:42;22.50;62.50
20492;DHT22;10404;51.468;6.762;2023-06-22T09:42:08;22.50;62.70
20492;DHT22;10404;51.468;6.762;2023-06-22T09:44:34;22.50;62.80
20492;DHT22;10404;51.468;6.762;2023-06-22T09:47:00;22.50;62.70
20492;DHT22;10404;51.468;6.762;2023-06-22T09:49:25;22.60;62.90
20492;DHT22;10404;51.468;6.762;2023-06-22T09:51:51;22.60;63.00
20492;DHT22;10404;51.468;6.762;2023-06-22T09:54:18;22.60;62.90
20492;DHT22;10404;51.468;6.762;2023-06-22T09:56:43;22.60;63.40
20492;DHT22;10404;51.468;6.762;2023-06-22T09:59:09;22.70;63.40
20492;DHT22;10404;51.468;6.762;2023-06-22T10:01:35;22.80;63.40
20492;DHT22;10404;51.468;6.762;2023-06-22T10:04:02;22.80;63.50
20492;DHT22;10404;51.468;6.762;2023-06-22T10:06:28;22.90;63.20
20492;DHT22;10404;51.468;6.762;2023-06-22T10:08:53;23.00;63.40
20492;DHT22;10404;51.468;6.762;2023-06-22T10:11:19;23.10;63.10
20492;DHT22;10404;51.468;6.762;2023-06-22T10:13:45;23.30;63.00
20492;DHT22;10404;51.468;6.762;2023-06-22T10:16:10;23.40;62.60
20492;DHT22;10404;51.468;6.762;2023-06-22T10:18:36;23.50;62.50
20492;DHT22;10404;51.468;6.762;2023-06-22T10:21:02;23.60;62.30
20492;DHT22;10404;51.468;6.762;2023-06-22T10:23:27;23.80;62.30
20492;DHT22;10404;51.468;6.762;2023-06-22T10:25:53;23.90;62.10
20492;DHT22;10404;51.468;6.762;2023-06-22T10:28:19;24.00;61.90
20492;DHT22;10404;51.468;6.762;2023-06-22T10:30:44;24.00;62.10
20492;DHT22;10404;51.468;6.762;2023-06-22T10:33:11;24.20;61.50
20492;DHT22;10404;51.468;6.762;2023-06-22T10:35:38;24.40;61.10
20492;DHT22;10404;51.468;6.762;2023-06-22T10:38:04;24.40;60.90
20492;DHT22;10404;51.468;6.762;2023-06-22T10:40:30;24.40;60.50
20492;DHT22;10404;51.468;6.762;2023-06-22T10:42:56;24.50;60.30
20492;DHT22;10404;51.468;6.762;2023-06-22T10:45:21;24.50;60.20
20492;DHT22;10404;51.468;6.762;2023-06-22T10:47:47;24.60;60.20
20492;DHT22;10404;51.468;6.762;2023-06-22T10:50:13;24.60;60.20
20492;DHT22;10404;51.468;6.762;2023-06-22T10:52:39;24.60;60.00
20492;DHT22;10404;51.468;6.762;2023-06-22T10:55:05;24.70;59.90
20492;DHT22;10404;51.468;6.762;2023-06-22T10:57:31;24.70;59.70
20492;DHT22;10404;51.468;6.762;2023-06-22T10:59:57;24.80;59.60
20492;DHT22;10404;51.468;6.762;2023-06-22T11:02:23;24.80;59.40
20492;DHT22;10404;51.468;6.762;2023-06-22T11:04:49;24.80;59.40
20492;DHT22;10404;51.468;6.762;2023-06-22T11:07:15;24.80;59.40
20492;DHT22;10404;51.468;6.762;2023-06-22T11:09:43;24.80;59.30
20492;DHT22;10404;51.468;6.762;2023-06-22T11:12:09;24.80;59.30
20492;DHT22;10404;51.468;6.762;2023-06-22T11:14:34;24.80;59.20
20492;DHT22;10404;51.468;6.762;2023-06-22T11:17:00;24.80;59.30
20492;DHT22;10404;51.468;6.762;2023-06-22T11:19:25;24.90;59.30
20492;DHT22;10404;51.468;6.762;2023-06-22T11:21:51;24.80;59.60
20492;DHT22;10404;51.468;6.762;2023-06-22T11:24:17;24.80;59.60
20492;DHT22;10404;51.468;6.762;2023-06-22T11:26:43;24.90;59.40
20492;DHT22;10404;51.468;6.762;2023-06-22T11:29:09;24.90;59.40
20492;DHT22;10404;51.468;6.762;2023-06-22T11:31:35;24.90;59.50
20492;DHT22;10404;51.468;6.762;2023-06-22T11:34:01;24.90;59.50
20492;DHT22;10404;51.468;6.762;2023-06-22T11:36:27;24.90;60.20
20492;DHT22;10404;51.468;6.762;2023-06-22T11:38:54;24.80;60.20
20492;DHT22;10404;51.468;6.762;2023-06-22T11:41:20;24.80;60.10
20492;DHT22;10404;51.468;6.762;2023-06-22T11:43:45;24.80;60.00
20492;DHT22;10404;51.468;6.762;2023-06-22T11:46:11;24.80;60.00
20492;DHT22;10404;51.468;6.762;2023-06-22T11:48:37;24.80;60.00
20492;DHT22;10404;51.468;6.762;2023-06-22T11:51:03;24.80;60.20
20492;DHT22;10404;51.468;6.762;2023-06-22T11:53:29;24.70;60.20
20492;DHT22;10404;51.468;6.762;2023-06-22T11:55:55;24.70;60.50
20492;DHT22;10404;51.468;6.762;2023-06-22T11:58:21;24.70;60.70
20492;DHT22;10404;51.468;6.762;2023-06-22T12:00:48;24.70;61.10
20492;DHT22;10404;51.468;6.762;2023-06-22T12:03:13;24.60;61.30
20492;DHT22;10404;51.468;6.762;2023-06-22T12:05:40;24.60;61.90
20492;DHT22;10404;51.468;6.762;2023-06-22T12:08:06;24.60;62.30
20492;DHT22;10404;51.468;6.762;2023-06-22T12:10:32;24.60;62.50
20492;DHT22;10404;51.468;6.762;2023-06-22T12:12:57;24.50;61.80
20492;DHT22;10404;51.468;6.762;2023-06-22T12:15:25;24.50;62.90
20492;DHT22;10404;51.468;6.762;2023-06-22T12:17:51;24.50;63.30
20492;DHT22;10404;51.468;6.762;2023-06-22T12:20:17;24.50;63.00
20492;DHT22;10404;51.468;6.762;2023-06-22T12:22:43;24.40;63.00
20492;DHT22;10404;51.468;6.762;2023-06-22T12:25:09;24.40;63.10
20492;DHT22;10404;51.468;6.762;2023-06-22T12:27:38;24.40;62.90
20492;DHT22;10404;51.468;6.762;2023-06-22T12:30:04;24.40;63.00
20492;DHT22;10404;51.468;6.762;2023-06-22T12:32:30;24.40;63.40
20492;DHT22;10404;51.468;6.762;2023-06-22T12:34:56;24.40;63.30
20492;DHT22;10404;51.468;6.762;2023-06-22T12:37:22;24.40;63.60
20492;DHT22;10404;51.468;6.762;2023-06-22T12:39:48;24.40;66.60
20492;DHT22;10404;51.468;6.762;2023-06-22T12:42:13;24.40;66.50
20492;DHT22;10404;51.468;6.762;2023-06-22T12:44:39;24.40;67.20
20492;DHT22;10404;51.468;6.762;2023-06-22T12:47:05;24.40;66.80
20492;DHT22;10404;51.468;6.762;2023-06-22T12:49:31;24.40;67.60
20492;DHT22;10404;51.468;6.762;2023-06-22T12:51:57;24.40;67.70
20492;DHT22;10404;51.468;6.762;2023-06-22T12:54:22;24.40;68.10
20492;DHT22;10404;51.468;6.762;2023-06-22T12:56:50;24.40;68.30
20492;DHT22;10404;51.468;6.762;2023-06-22T12:59:15;24.40;67.70
20492;DHT22;10404;51.468;6.762;2023-06-22T13:01:42;24.40;68.20
20492;DHT22;10404;51.468;6.762;2023-06-22T13:04:09;24.40;67.50
20492;DHT22;10404;51.468;6.762;2023-06-22T13:06:36;24.40;66.80
20492;DHT22;10404;51.468;6.762;2023-06-22T13:09:02;24.40;69.00
20492;DHT22;10404;51.468;6.762;2023-06-22T13:11:30;24.40;68.70
20492;DHT22;10404;51.468;6.762;2023-06-22T13:13:56;24.30;68.70
20492;DHT22;10404;51.468;6.762;2023-06-22T13:16:21;24.30;68.40
20492;DHT22;10404;51.468;6.762;2023-06-22T13:18:47;24.30;68.00
20492;DHT22;10404;51.468;6.762;2023-06-22T13:21:12;24.30;68.20
20492;DHT22;10404;51.468;6.762;2023-06-22T13:23:39;24.30;68.00
20492;DHT22;10404;51.468;6.762;2023-06-22T13:26:05;24.30;67.90
20492;DHT22;10404;51.468;6.762;2023-06-22T13:28:30;24.30;68.20
20492;DHT22;10404;51.468;6.762;2023-06-22T13:30:56;24.20;68.20
20492;DHT22;10404;51.468;6.762;2023-06-22T13:33:22;24.20;68.20
20492;DHT22;10404;51.468;6.762;2023-06-22T13:35:47;24.30;67.70
20492;DHT22;10404;51.468;6.762;2023-06-22T13:38:13;24.20;68.20
20492;DHT22;10404;51.468;6.762;2023-06-22T13:40:38;24.20;68.00
20492;DHT22;10404;51.468;6.762;2023-06-22T13:43:05;24.20;68.30
20492;DHT22;10404;51.468;6.762;2023-06-22T13:45:31;24.20;68.60
20492;DHT22;10404;51.468;6.762;2023-06-22T13:47:57;24.20;68.80
20492;DHT22;10404;51.468;6.762;2023-06-22T13:50:22;24.20;68.70
20492;DHT22;10404;51.468;6.762;2023-06-22T13:52:48;24.20;68.00
20492;DHT22;10404;51.468;6.762;2023-06-22T13:55:14;24.20;67.20
20492;DHT22;10404;51.468;6.762;2023-06-22T13:57:40;24.20;68.50
20492;DHT22;10404;51.468;6.762;2023-06-22T14:00:07;24.20;67.90
20492;DHT22;10404;51.468;6.762;2023-06-22T14:02:38;24.20;69.50
20492;DHT22;10404;51.468;6.762;2023-06-22T14:05:05;24.20;68.90
20492;DHT22;10404;51.468;6.762;2023-06-22T14:07:31;24.20;69.70
20492;DHT22;10404;51.468;6.762;2023-06-22T14:09:57;24.20;69.80
20492;DHT22;10404;51.468;6.762;2023-06-22T14:12:23;24.30;69.40
20492;DHT22;10404;51.468;6.762;2023-06-22T14:14:49;24.30;70.20
20492;DHT22;10404;51.468;6.762;2023-06-22T14:17:15;24.30;69.60
20492;DHT22;10404;51.468;6.762;2023-06-22T14:19:41;24.30;69.90
20492;DHT22;10404;51.468;6.762;2023-06-22T14:22:06;24.30;69.80
20492;DHT22;10404;51.468;6.762;2023-06-22T14:24:32;24.30;70.50
20492;DHT22;10404;51.468;6.762;2023-06-22T14:26:57;24.30;69.60
20492;DHT22;10404;51.468;6.762;2023-06-22T14:29:23;24.30;69.70
20492;DHT22;10404;51.468;6.762;2023-06-22T14:31:49;24.30;69.90
20492;DHT22;10404;51.468;6.762;2023-06-22T14:34:15;24.30;69.80
20492;DHT22;10404;51.468;6.762;2023-06-22T14:36:41;24.30;69.70
20492;DHT22;10404;51.468;6.762;2023-06-22T14:39:08;24.30;69.30
20492;DHT22;10404;51.468;6.762;2023-06-22T14:41:33;24.30;69.00
20492;DHT22;10404;51.468;6.762;2023-06-22T14:43:59;24.30;69.70
20492;DHT22;10404;51.468;6.762;2023-06-22T14:46:24;24.30;69.10
20492;DHT22;10404;51.468;6.762;2023-06-22T14:48:50;24.30;68.80
20492;DHT22;10404;51.468;6.762;2023-06-22T14:51:16;24.30;69.00
20492;DHT22;10404;51.468;6.762;2023-06-22T14:53:45;24.20;69.40
20492;DHT22;10404;51.468;6.762;2023-06-22T14:56:11;24.20;69.00
20492;DHT22;10404;51.468;6.762;2023-06-22T14:58:39;24.20;69.10
20492;DHT22;10404;51.468;6.762;2023-06-22T15:01:05;24.20;68.50
20492;DHT22;10404;51.468;6.762;2023-06-22T15:03:34;24.20;68.70
20492;DHT22;10404;51.468;6.762;2023-06-22T15:06:01;24.20;68.90
20492;DHT22;10404;51.468;6.762;2023-06-22T15:08:27;24.20;68.80
20492;DHT22;10404;51.468;6.762;2023-06-22T15:10:53;24.20;68.70
20492;DHT22;10404;51.468;6.762;2023-06-22T15:13:19;24.20;68.60
20492;DHT22;10404;51.468;6.762;2023-06-22T15:15:48;24.20;68.40
20492;DHT22;10404;51.468;6.762;2023-06-22T15:18:15;24.20;68.60
20492;DHT22;10404;51.468;6.762;2023-06-22T15:20:41;24.20;68.70
20492;DHT22;10404;51.468;6.762;2023-06-22T15:23:09;24.20;69.00
20492;DHT22;10404;51.468;6.762;2023-06-22T15:25:35;24.20;69.20
20492;DHT22;10404;51.468;6.762;2023-06-22T15:28:01;24.20;69.60
20492;DHT22;10404;51.468;6.762;2023-06-22T15:30:26;24.20;69.50
20492;DHT22;10404;51.468;6.762;2023-06-22T15:32:52;24.20;69.60